IE-0012 weather

Ballinvally Farm Airstrip
County Westmeath, Ireland

Public forecast

Using degrees Celsius for public forecast. Weather courtesy of forecast.io.

Closest aviation weather report (METAR) to Ballinvally Farm Airstrip

Report is more than 6 hours old.

Closest report is Waterford Airport, 36.4 nm (67.4 km) SW. Retrieved 2020/08/04 20:30 UTC (7 hours ago):

EIWF 042030Z 24017G28KT 200V260 3000 DZ BKN004 15/15 Q1006 R21/2/////

Closest aviation forecast (TAF) to Ballinvally Farm Airstrip

Closest forecast is Dublin Airport, 51.1 nm (94.6 km) N. Retrieved 2020-08-05 00:10 UTC (4 hours ago):

TAF EIDW 042300Z 0500/0524 21014KT 9999 SCT010 BKN017 TEMPO 0500/0513 5000 -RA BKN010 PROB30 TEMPO 0510/0514 24016G27KT 2500 +SHRA BKN007 SCT030CB BECMG 0512/0514 27014KT BECMG 0515/0517 24010KT